N577BF KASH-KPWM
Flight info
| Callsign | N577BF |
|---|---|
| Flight time | 0h 35m |
| Altitude | 11000 |
| Route | ENE |
| Aircraft | PC12/L-V/N |
Departure
| Time | 2026-05-08 01:18 |
|---|---|
| Airport | Nashua Airport / Boire Field (KASH) |
Arrival
| Time | 2026-05-08 01:53 |
|---|---|
| Airport | Portland International Jetport (KPWM) |
| Time | Latitude | Longitude | Altitude | Speed | Heading |
|---|---|---|---|---|---|
| 2026-05-08 01:10 | 42.78024 | -71.51497 | 194 ft | 0 kts | 213° |
| 2026-05-08 01:14 | 42.78022 | -71.51498 | 194 ft | 2 kts | 208° |
| 2026-05-08 01:14 | 42.78013 | -71.51457 | 194 ft | 12 kts | 47° |
| 2026-05-08 01:15 | 42.78036 | -71.51355 | 193 ft | 13 kts | 120° |
| 2026-05-08 01:15 | 42.77983 | -71.51238 | 192 ft | 15 kts | 122° |
| 2026-05-08 01:15 | 42.77922 | -71.51115 | 192 ft | 15 kts | 128° |
| 2026-05-08 01:15 | 42.77861 | -71.50986 | 191 ft | 16 kts | 125° |
| 2026-05-08 01:16 | 42.77805 | -71.50867 | 191 ft | 13 kts | 122° |
| 2026-05-08 01:16 | 42.77751 | -71.50750 | 190 ft | 15 kts | 125° |
| 2026-05-08 01:16 | 42.77689 | -71.50623 | 190 ft | 14 kts | 122° |
| 2026-05-08 01:16 | 42.77708 | -71.50561 | 190 ft | 8 kts | 32° |
| 2026-05-08 01:17 | 42.77757 | -71.50517 | 190 ft | 9 kts | 33° |
| 2026-05-08 01:17 | 42.77822 | -71.50507 | 190 ft | 6 kts | 283° |
| 2026-05-08 01:17 | 42.77911 | -71.50710 | 191 ft | 59 kts | 302° |
| 2026-05-08 01:17 | 42.78227 | -71.51377 | 284 ft | 105 kts | 295° |
| 2026-05-08 01:18 | 42.78699 | -71.52394 | 423 ft | 142 kts | 302° |
| 2026-05-08 01:18 | 42.79273 | -71.53513 | 965 ft | 143 kts | 305° |
| 2026-05-08 01:18 | 42.79842 | -71.54533 | 1614 ft | 136 kts | 306° |
| 2026-05-08 01:18 | 42.80403 | -71.55545 | 2150 ft | 136 kts | 306° |
| 2026-05-08 01:19 | 42.80964 | -71.56572 | 2661 ft | 137 kts | 306° |
| 2026-05-08 01:19 | 42.81521 | -71.57594 | 3194 ft | 135 kts | 306° |
| 2026-05-08 01:19 | 42.82084 | -71.58637 | 3678 ft | 137 kts | 306° |
| 2026-05-08 01:19 | 42.82668 | -71.59710 | 3977 ft | 150 kts | 306° |
| 2026-05-08 01:20 | 42.83346 | -71.60950 | 4003 ft | 174 kts | 306° |
| 2026-05-08 01:20 | 42.84097 | -71.62341 | 3999 ft | 190 kts | 306° |
| 2026-05-08 01:20 | 42.84914 | -71.63851 | 3996 ft | 201 kts | 306° |
| 2026-05-08 01:20 | 42.85756 | -71.65407 | 3997 ft | 207 kts | 306° |
| 2026-05-08 01:21 | 42.86639 | -71.66981 | 3990 ft | 212 kts | 312° |
| 2026-05-08 01:21 | 42.87709 | -71.68377 | 3989 ft | 214 kts | 319° |
| 2026-05-08 01:21 | 42.89062 | -71.69071 | 4351 ft | 205 kts | 350° |
| 2026-05-08 01:21 | 42.90413 | -71.68902 | 4946 ft | 192 kts | 10° |
| 2026-05-08 01:22 | 42.91536 | -71.68136 | 5753 ft | 172 kts | 30° |
| 2026-05-08 01:22 | 42.92355 | -71.67078 | 6297 ft | 170 kts | 44° |
| 2026-05-08 01:22 | 42.93066 | -71.65739 | 6641 ft | 177 kts | 49° |
| 2026-05-08 01:22 | 42.93738 | -71.64340 | 7042 ft | 179 kts | 50° |
| 2026-05-08 01:23 | 42.94427 | -71.62895 | 7419 ft | 181 kts | 50° |
| 2026-05-08 01:23 | 42.95113 | -71.61460 | 7802 ft | 183 kts | 49° |
| 2026-05-08 01:23 | 42.95813 | -71.60002 | 8167 ft | 185 kts | 50° |
| 2026-05-08 01:23 | 42.96520 | -71.58530 | 8552 ft | 186 kts | 50° |
| 2026-05-08 01:24 | 42.97232 | -71.57046 | 8893 ft | 189 kts | 49° |
| 2026-05-08 01:24 | 42.97954 | -71.55547 | 9271 ft | 189 kts | 49° |
| 2026-05-08 01:24 | 42.98681 | -71.54034 | 9622 ft | 191 kts | 49° |
| 2026-05-08 01:24 | 42.99403 | -71.52533 | 9960 ft | 192 kts | 49° |
| 2026-05-08 01:25 | 43.00145 | -71.50991 | 10248 ft | 197 kts | 49° |
| 2026-05-08 01:25 | 43.00899 | -71.49421 | 10570 ft | 198 kts | 49° |
| 2026-05-08 01:25 | 43.01661 | -71.47835 | 10855 ft | 202 kts | 49° |
| 2026-05-08 01:25 | 43.02454 | -71.46189 | 10991 ft | 213 kts | 50° |
| 2026-05-08 01:26 | 43.03291 | -71.44451 | 10998 ft | 228 kts | 50° |
| 2026-05-08 01:26 | 43.04182 | -71.42598 | 10997 ft | 238 kts | 51° |
| 2026-05-08 01:26 | 43.05101 | -71.40679 | 10994 ft | 246 kts | 51° |
| 2026-05-08 01:26 | 43.06043 | -71.38707 | 11030 ft | 249 kts | 51° |
| 2026-05-08 01:27 | 43.06996 | -71.36710 | 11045 ft | 253 kts | 51° |
| 2026-05-08 01:27 | 43.07967 | -71.34676 | 11044 ft | 256 kts | 52° |
| 2026-05-08 01:27 | 43.08935 | -71.32647 | 11056 ft | 257 kts | 52° |
| 2026-05-08 01:27 | 43.09928 | -71.30563 | 11029 ft | 259 kts | 52° |
| 2026-05-08 01:28 | 43.10916 | -71.28490 | 11039 ft | 259 kts | 52° |
| 2026-05-08 01:28 | 43.11892 | -71.26440 | 11041 ft | 260 kts | 52° |
| 2026-05-08 01:28 | 43.12883 | -71.24358 | 11034 ft | 260 kts | 52° |
| 2026-05-08 01:28 | 43.13864 | -71.22297 | 11065 ft | 260 kts | 52° |
| 2026-05-08 01:29 | 43.14859 | -71.20203 | 11050 ft | 262 kts | 52° |
| 2026-05-08 01:29 | 43.15855 | -71.18111 | 11051 ft | 263 kts | 52° |
| 2026-05-08 01:29 | 43.16852 | -71.16011 | 11028 ft | 264 kts | 52° |
| 2026-05-08 01:29 | 43.17849 | -71.13908 | 11013 ft | 262 kts | 52° |
| 2026-05-08 01:30 | 43.18841 | -71.11816 | 11002 ft | 260 kts | 52° |
| 2026-05-08 01:30 | 43.19828 | -71.09731 | 11047 ft | 260 kts | 52° |
| 2026-05-08 01:30 | 43.20810 | -71.07658 | 11012 ft | 260 kts | 52° |
| 2026-05-08 01:30 | 43.21793 | -71.05582 | 11028 ft | 260 kts | 52° |
| 2026-05-08 01:31 | 43.22782 | -71.03495 | 11030 ft | 261 kts | 52° |
| 2026-05-08 01:31 | 43.23764 | -71.01417 | 11029 ft | 261 kts | 52° |
| 2026-05-08 01:31 | 43.24756 | -70.99319 | 11029 ft | 261 kts | 52° |
| 2026-05-08 01:31 | 43.25734 | -70.97247 | 11027 ft | 261 kts | 52° |
| 2026-05-08 01:32 | 43.26723 | -70.95152 | 11028 ft | 262 kts | 52° |
| 2026-05-08 01:32 | 43.27721 | -70.93031 | 11027 ft | 262 kts | 52° |
| 2026-05-08 01:32 | 43.28706 | -70.90942 | 11025 ft | 262 kts | 52° |
| 2026-05-08 01:32 | 43.29678 | -70.88824 | 11022 ft | 264 kts | 58° |
| 2026-05-08 01:33 | 43.30204 | -70.86395 | 11032 ft | 267 kts | 74° |
| 2026-05-08 01:33 | 43.30601 | -70.83925 | 11029 ft | 267 kts | 76° |
| 2026-05-08 01:33 | 43.31004 | -70.81435 | 11028 ft | 267 kts | 76° |
| 2026-05-08 01:33 | 43.31390 | -70.78930 | 11027 ft | 268 kts | 76° |
| 2026-05-08 01:34 | 43.31772 | -70.76440 | 11023 ft | 267 kts | 75° |
| 2026-05-08 01:34 | 43.32160 | -70.73919 | 11027 ft | 268 kts | 76° |
| 2026-05-08 01:34 | 43.32545 | -70.71417 | 11027 ft | 268 kts | 76° |
| 2026-05-08 01:34 | 43.32925 | -70.68923 | 11032 ft | 267 kts | 75° |
| 2026-05-08 01:35 | 43.33306 | -70.66415 | 11030 ft | 268 kts | 76° |
| 2026-05-08 01:35 | 43.33693 | -70.63917 | 11028 ft | 268 kts | 75° |
| 2026-05-08 01:35 | 43.34079 | -70.61433 | 11034 ft | 268 kts | 75° |
| 2026-05-08 01:35 | 43.34471 | -70.58941 | 11023 ft | 267 kts | 75° |
| 2026-05-08 01:36 | 43.34864 | -70.56441 | 11023 ft | 268 kts | 75° |
| 2026-05-08 01:36 | 43.35251 | -70.53953 | 11012 ft | 268 kts | 75° |
| 2026-05-08 01:36 | 43.35641 | -70.51454 | 11048 ft | 267 kts | 75° |
| 2026-05-08 01:36 | 43.36033 | -70.48958 | 11009 ft | 267 kts | 75° |
| 2026-05-08 01:37 | 43.36425 | -70.46474 | 11055 ft | 267 kts | 75° |
| 2026-05-08 01:37 | 43.36828 | -70.43952 | 10954 ft | 273 kts | 75° |
| 2026-05-08 01:37 | 43.37241 | -70.41377 | 10752 ft | 278 kts | 75° |
| 2026-05-08 01:37 | 43.37653 | -70.38776 | 10545 ft | 281 kts | 75° |
| 2026-05-08 01:38 | 43.38063 | -70.36168 | 10342 ft | 283 kts | 75° |
| 2026-05-08 01:38 | 43.38484 | -70.33518 | 10138 ft | 283 kts | 76° |
| 2026-05-08 01:38 | 43.38909 | -70.30843 | 9914 ft | 284 kts | 75° |
| 2026-05-08 01:38 | 43.39324 | -70.28211 | 9729 ft | 284 kts | 76° |
| 2026-05-08 01:39 | 43.39741 | -70.25585 | 9537 ft | 284 kts | 76° |
| 2026-05-08 01:39 | 43.40160 | -70.22918 | 9336 ft | 283 kts | 75° |
| 2026-05-08 01:39 | 43.40577 | -70.20289 | 9118 ft | 283 kts | 76° |
| 2026-05-08 01:39 | 43.40999 | -70.17624 | 8906 ft | 282 kts | 76° |
| 2026-05-08 01:40 | 43.41416 | -70.15002 | 8715 ft | 282 kts | 76° |
| 2026-05-08 01:40 | 43.41828 | -70.12399 | 8498 ft | 282 kts | 76° |
| 2026-05-08 01:40 | 43.42254 | -70.09750 | 8230 ft | 283 kts | 75° |
| 2026-05-08 01:40 | 43.42702 | -70.07111 | 7977 ft | 282 kts | 70° |
| 2026-05-08 01:41 | 43.43870 | -70.05097 | 7725 ft | 270 kts | 27° |
| 2026-05-08 01:41 | 43.45596 | -70.04286 | 7479 ft | 262 kts | 6° |
| 2026-05-08 01:41 | 43.47391 | -70.03913 | 7218 ft | 256 kts | 5° |
| 2026-05-08 01:41 | 43.49064 | -70.03531 | 6967 ft | 233 kts | 4° |
| 2026-05-08 01:42 | 43.50604 | -70.03182 | 6714 ft | 218 kts | 5° |
| 2026-05-08 01:42 | 43.52062 | -70.02840 | 6358 ft | 202 kts | 4° |
| 2026-05-08 01:42 | 43.53403 | -70.02534 | 5990 ft | 190 kts | 5° |
| 2026-05-08 01:42 | 43.54678 | -70.02249 | 5631 ft | 181 kts | 4° |
| 2026-05-08 01:43 | 43.55883 | -70.01971 | 5269 ft | 174 kts | 5° |
| 2026-05-08 01:43 | 43.57070 | -70.01689 | 4878 ft | 170 kts | 5° |
| 2026-05-08 01:43 | 43.58233 | -70.01422 | 4468 ft | 170 kts | 4° |
| 2026-05-08 01:43 | 43.59400 | -70.01156 | 4064 ft | 172 kts | 5° |
| 2026-05-08 01:44 | 43.60539 | -70.01216 | 3655 ft | 163 kts | 332° |
| 2026-05-08 01:44 | 43.61493 | -70.02056 | 3259 ft | 166 kts | 322° |
| 2026-05-08 01:44 | 43.62312 | -70.03168 | 3028 ft | 162 kts | 301° |
| 2026-05-08 01:44 | 43.62777 | -70.04502 | 3007 ft | 150 kts | 293° |
| 2026-05-08 01:45 | 43.62888 | -70.05883 | 3005 ft | 142 kts | 273° |
| 2026-05-08 01:45 | 43.62897 | -70.07227 | 3012 ft | 136 kts | 276° |
| 2026-05-08 01:45 | 43.62942 | -70.08516 | 3007 ft | 133 kts | 278° |
| 2026-05-08 01:45 | 43.63113 | -70.09741 | 3005 ft | 127 kts | 304° |
| 2026-05-08 01:46 | 43.63830 | -70.10370 | 3017 ft | 127 kts | 349° |
| 2026-05-08 01:46 | 43.64682 | -70.09989 | 3014 ft | 138 kts | 35° |
| 2026-05-08 01:46 | 43.65119 | -70.08789 | 3018 ft | 152 kts | 78° |
| 2026-05-08 01:46 | 43.65084 | -70.07260 | 3024 ft | 165 kts | 92° |
| 2026-05-08 01:47 | 43.64932 | -70.05655 | 3017 ft | 172 kts | 93° |
| 2026-05-08 01:47 | 43.64755 | -70.04007 | 3014 ft | 178 kts | 99° |
| 2026-05-08 01:47 | 43.64093 | -70.02556 | 3025 ft | 184 kts | 144° |
| 2026-05-08 01:48 | 43.61974 | -70.02948 | 3023 ft | 159 kts | 259° |
| 2026-05-08 01:48 | 43.62053 | -70.04404 | 3024 ft | 154 kts | 292° |
| 2026-05-08 01:48 | 43.62463 | -70.05764 | 3020 ft | 155 kts | 292° |
| 2026-05-08 01:48 | 43.62783 | -70.07223 | 3029 ft | 162 kts | 285° |
| 2026-05-08 01:49 | 43.62971 | -70.08772 | 3022 ft | 167 kts | 279° |
| 2026-05-08 01:49 | 43.63083 | -70.10423 | 2869 ft | 178 kts | 278° |
| 2026-05-08 01:49 | 43.63189 | -70.12168 | 2644 ft | 188 kts | 278° |
| 2026-05-08 01:49 | 43.63311 | -70.13990 | 2384 ft | 195 kts | 278° |
| 2026-05-08 01:50 | 43.63443 | -70.15878 | 2098 ft | 200 kts | 279° |
| 2026-05-08 01:50 | 43.63578 | -70.17805 | 1832 ft | 203 kts | 278° |
| 2026-05-08 01:50 | 43.63714 | -70.19733 | 1550 ft | 195 kts | 279° |
| 2026-05-08 01:50 | 43.63835 | -70.21496 | 1289 ft | 171 kts | 278° |
| 2026-05-08 01:51 | 43.63926 | -70.22907 | 1074 ft | 131 kts | 279° |
| 2026-05-08 01:51 | 43.64001 | -70.24024 | 914 ft | 106 kts | 280° |
| 2026-05-08 01:51 | 43.64074 | -70.25054 | 796 ft | 105 kts | 280° |
| 2026-05-08 01:51 | 43.64141 | -70.26013 | 659 ft | 96 kts | 279° |
| 2026-05-08 01:52 | 43.64202 | -70.26914 | 521 ft | 91 kts | 279° |
| 2026-05-08 01:52 | 43.64261 | -70.27766 | 397 ft | 88 kts | 278° |
| 2026-05-08 01:52 | 43.64317 | -70.28599 | 281 ft | 89 kts | 277° |
| 2026-05-08 01:52 | 43.64370 | -70.29459 | 163 ft | 85 kts | 281° |
| 2026-05-08 01:53 | 43.64420 | -70.30190 | 56 ft | 59 kts | 279° |
| 2026-05-08 01:53 | 43.64448 | -70.30538 | 56 ft | 16 kts | 275° |
| 2026-05-08 01:53 | 43.64411 | -70.30685 | 56 ft | 18 kts | 181° |
| 2026-05-08 01:53 | 43.64354 | -70.30685 | 56 ft | 0 kts | 178° |
| 2026-05-08 01:54 | 43.64352 | -70.30685 | 56 ft | 1 kts | 179° |
| 2026-05-08 01:54 | 43.64320 | -70.30685 | 56 ft | 7 kts | 178° |
| 2026-05-08 01:54 | 43.64259 | -70.30696 | 56 ft | 10 kts | 225° |
| 2026-05-08 01:55 | 43.64230 | -70.30796 | 56 ft | 11 kts | 240° |
| 2026-05-08 01:55 | 43.64201 | -70.30794 | 56 ft | 0 kts | 116° |